createdAt,value
2019-05-09T00:02:34.761Z,10.06
2019-05-09T00:05:34.718Z,9.94
2019-05-09T00:08:34.704Z,9.85
2019-05-09T00:11:34.669Z,9.97
2019-05-09T00:14:34.620Z,9.91
2019-05-09T00:17:34.603Z,9.91
2019-05-09T00:20:34.576Z,9.94
2019-05-09T00:23:34.540Z,9.94
2019-05-09T00:26:34.525Z,9.89
2019-05-09T00:29:34.459Z,9.91
2019-05-09T00:32:34.440Z,9.88
2019-05-09T00:35:34.399Z,9.89
2019-05-09T00:38:34.380Z,9.82
2019-05-09T00:41:34.330Z,9.75
2019-05-09T00:44:34.324Z,9.75
2019-05-09T00:47:34.272Z,9.76
2019-05-09T00:50:34.298Z,9.76
2019-05-09T00:53:34.206Z,9.67
2019-05-09T00:56:34.199Z,9.67
2019-05-09T00:59:34.159Z,9.73
2019-05-09T01:02:34.150Z,9.68
2019-05-09T01:05:34.295Z,9.67
2019-05-09T01:08:34.050Z,9.78
2019-05-09T01:11:34.035Z,9.79
2019-05-09T01:14:34.178Z,9.78
2019-05-09T01:17:33.949Z,9.79
2019-05-09T01:20:33.937Z,9.67
2019-05-09T01:23:34.504Z,9.66
2019-05-09T01:26:33.874Z,9.70
2019-05-09T01:29:33.967Z,9.68
2019-05-09T01:32:34.333Z,9.56
2019-05-09T01:35:34.063Z,9.60
2019-05-09T01:38:34.020Z,9.49
2019-05-09T01:41:34.154Z,9.52
2019-05-09T01:44:33.739Z,9.63
2019-05-09T01:47:34.210Z,9.58
2019-05-09T01:50:34.091Z,9.70
2019-05-09T01:53:33.604Z,9.60
2019-05-09T01:56:33.952Z,9.61
2019-05-09T01:59:34.073Z,9.50
2019-05-09T02:02:33.900Z,9.48
2019-05-09T02:05:34.040Z,9.43
2019-05-09T02:08:34.563Z,9.40
2019-05-09T02:11:42.456Z,9.25
2019-05-09T02:14:34.481Z,9.27
2019-05-09T02:17:33.544Z,9.25
2019-05-09T02:20:33.427Z,9.27
2019-05-09T02:23:33.939Z,9.27
2019-05-09T02:26:33.543Z,9.10
2019-05-09T02:29:40.236Z,9.16
2019-05-09T02:32:34.745Z,9.16
2019-05-09T02:35:39.647Z,9.21
2019-05-09T02:38:34.121Z,9.18
2019-05-09T02:41:33.059Z,9.27
2019-05-09T02:44:33.046Z,9.25
2019-05-09T02:47:33.012Z,9.31
2019-05-09T02:50:32.994Z,9.18
2019-05-09T02:53:32.942Z,9.15
2019-05-09T02:56:32.908Z,9.13
2019-05-09T02:59:32.872Z,9.15
2019-05-09T03:02:32.871Z,9.27
2019-05-09T03:05:32.814Z,9.23
2019-05-09T03:08:32.771Z,9.15
2019-05-09T03:11:32.764Z,9.30
2019-05-09T03:14:32.729Z,9.15
2019-05-09T03:17:32.679Z,9.23
2019-05-09T03:20:32.662Z,9.16
2019-05-09T03:23:32.613Z,9.20
2019-05-09T03:26:32.596Z,9.12
2019-05-09T03:29:32.560Z,9.15
2019-05-09T03:32:32.546Z,9.18
2019-05-09T03:35:32.495Z,9.15
2019-05-09T03:38:32.471Z,9.13
2019-05-09T03:41:32.438Z,8.97
2019-05-09T03:44:32.410Z,8.91
2019-05-09T03:47:32.388Z,9.06
2019-05-09T03:50:32.328Z,9.10
2019-05-09T03:53:32.316Z,9.05
2019-05-09T03:56:32.272Z,8.97
2019-05-09T03:59:32.256Z,8.96
2019-05-09T04:02:32.210Z,8.83
2019-05-09T04:05:32.184Z,8.91
2019-05-09T04:08:32.164Z,8.97
2019-05-09T04:11:32.108Z,8.87
2019-05-09T04:14:32.093Z,8.87
2019-05-09T04:17:32.060Z,8.87
2019-05-09T04:20:32.041Z,8.93
2019-05-09T04:23:31.982Z,8.97
2019-05-09T04:26:31.964Z,9.04
2019-05-09T04:29:31.925Z,9.05
2019-05-09T04:32:31.900Z,9.24
2019-05-09T04:35:31.857Z,9.27
2019-05-09T04:38:31.848Z,9.24
2019-05-09T04:41:31.791Z,9.24
2019-05-09T04:44:31.774Z,9.30
2019-05-09T04:47:38.139Z,9.34
2019-05-09T04:50:32.711Z,9.39
2019-05-09T04:53:31.686Z,9.49
2019-05-09T04:56:31.653Z,9.61
2019-05-09T04:59:31.613Z,9.76
2019-05-09T05:02:31.577Z,9.85
2019-05-09T05:05:31.550Z,9.91
2019-05-09T05:08:31.508Z,10.21
2019-05-09T05:11:31.495Z,9.91
2019-05-09T05:14:31.455Z,9.85
2019-05-09T05:17:31.415Z,9.73
2019-05-09T05:20:31.415Z,9.64
2019-05-09T05:23:31.346Z,9.67
2019-05-09T05:26:31.330Z,9.71
2019-05-09T05:29:31.306Z,9.64
2019-05-09T05:32:31.244Z,9.83
2019-05-09T05:35:31.222Z,9.78
2019-05-09T05:38:31.192Z,9.85
2019-05-09T05:41:31.159Z,9.91
2019-05-09T05:44:31.118Z,9.97
2019-05-09T05:47:31.093Z,10.03
2019-05-09T05:50:31.066Z,10.14
2019-05-09T05:53:31.022Z,10.19
2019-05-09T05:56:31.009Z,10.37
2019-05-09T05:59:30.948Z,10.89
2019-05-09T06:02:30.939Z,10.83
2019-05-09T06:05:30.879Z,10.77
2019-05-09T06:08:30.861Z,10.88
2019-05-09T06:11:30.824Z,11.10
2019-05-09T06:14:30.786Z,11.07
2019-05-09T06:17:30.759Z,11.29
2019-05-09T06:20:30.715Z,11.61
2019-05-09T06:23:30.694Z,11.61
2019-05-09T06:26:30.667Z,12.23
2019-05-09T06:29:30.632Z,12.46
2019-05-09T06:32:30.585Z,12.57
2019-05-09T06:35:30.568Z,12.31
2019-05-09T06:38:30.554Z,12.16
2019-05-09T06:41:30.486Z,11.68
2019-05-09T06:44:30.479Z,12.09
2019-05-09T06:47:30.420Z,14.95
2019-05-09T06:50:30.408Z,18.09
2019-05-09T06:53:30.375Z,18.73
2019-05-09T06:56:30.329Z,18.47
2019-05-09T06:59:30.308Z,20.25
2019-05-09T07:02:30.261Z,20.69
2019-05-09T07:05:30.248Z,20.28
2019-05-09T07:08:31.492Z,19.10
2019-05-09T07:11:30.171Z,18.34
2019-05-09T07:14:33.215Z,18.31
2019-05-09T07:17:31.962Z,19.57
2019-05-09T07:20:30.103Z,20.05
2019-05-09T07:23:30.035Z,18.67
2019-05-09T07:26:30.026Z,18.37
2019-05-09T07:29:29.970Z,19.23
2019-05-09T07:32:29.951Z,19.55
2019-05-09T07:35:29.908Z,19.14
2019-05-09T07:38:29.888Z,20.46
2019-05-09T07:41:29.851Z,20.54
2019-05-09T07:44:45.037Z,22.06
2019-05-09T07:47:30.787Z,22.20
2019-05-09T07:50:29.745Z,23.08
2019-05-09T07:53:29.737Z,22.20
2019-05-09T07:56:29.692Z,19.53
2019-05-09T07:59:29.671Z,19.73
2019-05-09T08:02:29.632Z,20.66
2019-05-09T08:05:29.590Z,22.74
2019-05-09T08:08:30.308Z,21.61
2019-05-09T08:11:32.274Z,22.27
2019-05-09T08:14:29.513Z,23.55
2019-05-09T08:17:29.464Z,24.83
2019-05-09T08:20:29.450Z,19.75
2019-05-09T08:23:29.430Z,20.69
2019-05-09T08:26:30.088Z,19.86
2019-05-09T08:29:29.355Z,22.86
2019-05-09T08:32:37.710Z,22.46
2019-05-09T08:35:29.314Z,19.48
2019-05-09T08:38:29.262Z,24.12
2019-05-09T08:41:29.452Z,23.57
2019-05-09T08:44:31.255Z,24.67
2019-05-09T08:47:29.168Z,23.40
2019-05-09T08:50:29.159Z,19.75
2019-05-09T08:53:29.094Z,18.84
2019-05-09T08:56:29.077Z,18.31
2019-05-09T08:59:29.037Z,23.67
2019-05-09T09:02:29.018Z,22.97
2019-05-09T09:05:29.038Z,23.95
2019-05-09T09:08:28.947Z,24.75
2019-05-09T09:11:28.926Z,24.97
2019-05-09T09:14:28.908Z,23.71
2019-05-09T09:17:28.850Z,23.61
2019-05-09T09:20:29.084Z,19.87
2019-05-09T09:23:42.842Z,21.71
2019-05-09T09:26:29.773Z,24.49
2019-05-09T09:29:28.742Z,25.07
2019-05-09T09:32:28.711Z,25.27
2019-05-09T09:35:28.677Z,25.69
2019-05-09T09:38:28.668Z,24.64
2019-05-09T09:41:28.851Z,20.95
2019-05-09T09:44:28.921Z,21.83
2019-05-09T09:47:28.798Z,24.04
2019-05-09T09:50:28.524Z,22.60
2019-05-09T09:53:28.486Z,19.84
2019-05-09T09:56:28.562Z,20.81
2019-05-09T09:59:28.439Z,24.01
2019-05-09T10:02:28.411Z,25.47
2019-05-09T10:05:28.401Z,22.02
2019-05-09T10:08:28.327Z,20.23
2019-05-09T10:11:28.706Z,23.38
2019-05-09T10:14:28.507Z,23.52
2019-05-09T10:17:28.258Z,21.59
2019-05-09T10:20:29.168Z,22.92
2019-05-09T10:23:28.208Z,24.88
2019-05-09T10:26:28.502Z,25.84
2019-05-09T10:29:28.131Z,26.57
2019-05-09T10:32:28.843Z,25.20
2019-05-09T10:35:28.054Z,25.06
2019-05-09T10:38:28.159Z,22.10
2019-05-09T10:41:27.996Z,20.89
2019-05-09T10:44:28.443Z,22.27
2019-05-09T10:47:27.948Z,21.85
2019-05-09T10:50:34.037Z,19.57
2019-05-09T10:53:28.879Z,20.06
2019-05-09T10:56:28.235Z,20.46
2019-05-09T10:59:27.830Z,21.95
2019-05-09T11:02:28.033Z,20.28
2019-05-09T11:05:27.891Z,19.54
2019-05-09T11:08:28.628Z,18.99
2019-05-09T11:11:28.490Z,19.32
2019-05-09T11:14:36.021Z,19.47
2019-05-09T11:17:28.768Z,22.43
2019-05-09T11:20:28.435Z,21.30
2019-05-09T11:23:29.196Z,19.60
2019-05-09T11:26:28.591Z,19.72
2019-05-09T11:29:28.197Z,20.10
2019-05-09T11:32:27.918Z,22.59
2019-05-09T11:35:27.508Z,20.27
2019-05-09T11:38:35.463Z,19.69
2019-05-09T11:41:29.642Z,19.06
2019-05-09T11:44:27.368Z,18.64
2019-05-09T11:47:37.895Z,19.24
2019-05-09T11:50:28.286Z,19.28
2019-05-09T11:53:28.766Z,20.15
2019-05-09T11:56:27.246Z,20.02
2019-05-09T11:59:28.086Z,18.92
2019-05-09T12:02:27.963Z,18.80
2019-05-09T12:05:28.783Z,18.91
2019-05-09T12:08:27.082Z,18.87
2019-05-09T12:11:27.068Z,18.86
2019-05-09T12:14:27.671Z,19.01
2019-05-09T12:17:31.223Z,19.72
2019-05-09T12:20:27.969Z,20.39
2019-05-09T12:23:29.011Z,20.42
2019-05-09T12:26:29.230Z,19.33
2019-05-09T12:29:28.730Z,18.87
2019-05-09T12:32:28.519Z,18.65
2019-05-09T12:35:26.795Z,18.40
2019-05-09T12:38:27.735Z,18.98
2019-05-09T12:41:30.941Z,18.59
2019-05-09T12:44:28.803Z,19.29
2019-05-09T12:47:29.168Z,19.76
2019-05-09T12:50:29.269Z,20.95
2019-05-09T12:53:28.003Z,21.50
2019-05-09T12:56:28.509Z,23.17
2019-05-09T12:59:28.662Z,21.98
2019-05-09T13:02:27.902Z,21.16
2019-05-09T13:05:27.358Z,20.53
2019-05-09T13:08:27.866Z,21.09
2019-05-09T13:11:27.975Z,21.14
2019-05-09T13:14:28.514Z,20.47
2019-05-09T13:17:27.259Z,20.38
2019-05-09T13:20:28.562Z,21.71
2019-05-09T13:23:28.711Z,22.99
2019-05-09T13:26:28.929Z,22.43
2019-05-09T13:29:26.225Z,26.04
2019-05-09T13:32:27.972Z,26.20
2019-05-09T13:35:27.839Z,25.91
2019-05-09T13:38:27.629Z,21.85
2019-05-09T13:41:26.149Z,22.71
2019-05-09T13:44:27.759Z,21.85
2019-05-09T13:47:28.070Z,22.12
2019-05-09T13:50:28.144Z,21.24
2019-05-09T13:53:28.341Z,20.99
2019-05-09T13:56:28.039Z,19.72
2019-05-09T13:59:29.259Z,19.97
2019-05-09T14:02:28.541Z,23.19
2019-05-09T14:05:28.887Z,22.64
2019-05-09T14:08:28.518Z,21.13
2019-05-09T14:11:28.861Z,20.23
2019-05-09T14:14:27.891Z,20.23
2019-05-09T14:17:44.767Z,20.41
2019-05-09T14:20:27.527Z,20.62
2019-05-09T14:23:34.907Z,21.82
2019-05-09T14:26:27.766Z,21.26
2019-05-09T14:29:25.616Z,20.99
2019-05-09T14:32:34.914Z,21.01
2019-05-09T14:35:27.665Z,20.79
2019-05-09T14:38:25.518Z,19.72
2019-05-09T14:41:27.740Z,19.72
2019-05-09T14:44:27.632Z,20.21
2019-05-09T14:47:27.681Z,20.35
2019-05-09T14:50:25.384Z,19.84
2019-05-09T14:53:25.375Z,19.31
2019-05-09T14:56:27.813Z,19.50
2019-05-09T14:59:25.317Z,19.61
2019-05-09T15:02:25.255Z,19.47
2019-05-09T15:05:25.232Z,19.08
2019-05-09T15:08:25.195Z,19.14
2019-05-09T15:11:27.932Z,18.40
2019-05-09T15:14:25.121Z,18.62
2019-05-09T15:17:27.570Z,18.55
2019-05-09T15:20:25.075Z,18.36
2019-05-09T15:23:25.047Z,18.42
2019-05-09T15:26:27.502Z,18.54
2019-05-09T15:29:24.981Z,18.43
2019-05-09T15:32:24.961Z,18.15
2019-05-09T15:35:24.900Z,17.62
2019-05-09T15:38:24.886Z,17.40
2019-05-09T15:41:24.867Z,17.22
2019-05-09T15:44:24.807Z,17.03
2019-05-09T15:47:24.823Z,16.95
2019-05-09T15:50:24.747Z,16.71
2019-05-09T15:53:24.720Z,16.70
2019-05-09T15:56:24.683Z,16.80
2019-05-09T15:59:24.652Z,16.50
2019-05-09T16:02:24.730Z,16.40
2019-05-09T16:05:24.622Z,16.34
2019-05-09T16:08:24.542Z,16.42
2019-05-09T16:11:24.530Z,16.48
2019-05-09T16:14:24.482Z,16.30
2019-05-09T16:17:24.463Z,16.22
2019-05-09T16:20:36.874Z,16.15
2019-05-09T16:23:25.384Z,16.14
2019-05-09T16:26:24.392Z,16.20
2019-05-09T16:29:24.321Z,16.33
2019-05-09T16:32:24.302Z,16.20
2019-05-09T16:35:24.273Z,16.01
2019-05-09T16:38:38.837Z,16.14
2019-05-09T16:41:25.282Z,16.20
2019-05-09T16:44:24.166Z,15.84
2019-05-09T16:47:24.169Z,16.14
2019-05-09T16:50:24.100Z,16.07
2019-05-09T16:53:24.086Z,16.27
2019-05-09T16:56:24.045Z,16.25
2019-05-09T16:59:24.019Z,16.33
2019-05-09T17:02:25.064Z,16.22
2019-05-09T17:05:23.933Z,16.31
2019-05-09T17:08:23.919Z,16.30
2019-05-09T17:11:23.895Z,16.12
2019-05-09T17:14:23.835Z,16.27
2019-05-09T17:17:23.829Z,15.94
2019-05-09T17:20:23.771Z,15.96
2019-05-09T17:23:23.773Z,15.74
2019-05-09T17:26:23.707Z,15.56
2019-05-09T17:29:23.693Z,15.52
2019-05-09T17:32:23.653Z,15.30
2019-05-09T17:35:23.638Z,15.15
2019-05-09T17:38:23.582Z,15.06
2019-05-09T17:41:23.568Z,14.94
2019-05-09T17:44:23.530Z,14.86
2019-05-09T17:47:23.487Z,14.80
2019-05-09T17:50:23.470Z,14.67
2019-05-09T17:53:23.451Z,14.64
2019-05-09T17:56:23.384Z,14.60
2019-05-09T17:59:23.390Z,14.52
2019-05-09T18:02:23.321Z,14.56
2019-05-09T18:05:23.306Z,14.54
2019-05-09T18:08:23.257Z,14.56
2019-05-09T18:11:23.259Z,14.43
2019-05-09T18:14:23.187Z,14.24
2019-05-09T18:17:23.171Z,14.14
2019-05-09T18:20:23.151Z,13.96
2019-05-09T18:23:23.096Z,13.89
2019-05-09T18:26:23.091Z,13.65
2019-05-09T18:29:23.027Z,13.51
2019-05-09T18:32:23.027Z,13.37
2019-05-09T18:35:22.966Z,13.29
2019-05-09T18:38:22.951Z,13.12
2019-05-09T18:41:22.898Z,13.03
2019-05-09T18:44:22.923Z,12.92
2019-05-09T18:47:22.853Z,12.77
2019-05-09T18:50:22.828Z,12.70
2019-05-09T18:53:22.766Z,12.66
2019-05-09T18:56:22.751Z,12.62
2019-05-09T18:59:22.718Z,12.62
2019-05-09T19:02:22.699Z,12.59
2019-05-09T19:05:22.655Z,12.63
2019-05-09T19:08:22.637Z,12.59
2019-05-09T19:11:22.573Z,12.54
2019-05-09T19:14:22.568Z,12.57
2019-05-09T19:17:22.533Z,12.57
2019-05-09T19:20:22.480Z,12.57
2019-05-09T19:23:22.456Z,12.44
2019-05-09T19:26:22.427Z,12.39
2019-05-09T19:29:22.381Z,12.46
2019-05-09T19:32:22.367Z,12.45
2019-05-09T19:35:22.324Z,12.51
2019-05-09T19:38:22.293Z,12.37
2019-05-09T19:41:22.250Z,12.39
2019-05-09T19:44:22.261Z,12.27
2019-05-09T19:47:22.183Z,12.21
2019-05-09T19:50:22.165Z,12.09
2019-05-09T19:53:22.120Z,11.96
2019-05-09T19:56:22.104Z,11.80
2019-05-09T19:59:22.065Z,11.71
2019-05-09T20:02:22.023Z,11.49
2019-05-09T20:05:22.001Z,11.44
2019-05-09T20:08:21.990Z,11.20
2019-05-09T20:11:21.924Z,11.10
2019-05-09T20:14:21.910Z,10.92
2019-05-09T20:17:21.860Z,10.91
2019-05-09T20:20:21.837Z,10.55
2019-05-09T20:23:21.801Z,10.53
2019-05-09T20:26:21.774Z,10.25
2019-05-09T20:29:21.743Z,10.18
2019-05-09T20:32:21.692Z,10.32
2019-05-09T20:35:21.686Z,10.24
2019-05-09T20:38:21.656Z,10.51
2019-05-09T20:41:21.599Z,10.40
2019-05-09T20:44:21.575Z,10.34
2019-05-09T20:47:21.538Z,10.42
2019-05-09T20:50:21.537Z,10.47
2019-05-09T20:53:21.459Z,10.80
2019-05-09T20:56:21.450Z,10.94
2019-05-09T20:59:21.397Z,11.03
2019-05-09T21:02:21.371Z,11.07
2019-05-09T21:05:21.345Z,11.06
2019-05-09T21:08:21.309Z,11.06
2019-05-09T21:11:21.280Z,11.07
2019-05-09T21:14:21.228Z,11.10
2019-05-09T21:17:21.216Z,11.20
2019-05-09T21:20:21.175Z,11.13
2019-05-09T21:23:24.716Z,11.19
2019-05-09T21:26:21.100Z,11.28
2019-05-09T21:29:21.087Z,11.52
2019-05-09T21:32:21.033Z,11.52
2019-05-09T21:35:21.009Z,11.74
2019-05-09T21:38:20.991Z,11.74
2019-05-09T21:41:20.932Z,11.71
2019-05-09T21:44:20.917Z,11.85
2019-05-09T21:47:20.863Z,11.85
2019-05-09T21:50:20.849Z,11.89
2019-05-09T21:53:20.801Z,11.90
2019-05-09T21:56:20.792Z,11.89
2019-05-09T21:59:20.733Z,11.87
2019-05-09T22:02:20.710Z,11.86
2019-05-09T22:05:20.671Z,11.86
2019-05-09T22:08:20.642Z,11.80
2019-05-09T22:11:20.598Z,11.77
2019-05-09T22:14:20.577Z,11.65
2019-05-09T22:17:20.547Z,11.72
2019-05-09T22:20:20.527Z,11.80
2019-05-09T22:23:20.465Z,11.74
2019-05-09T22:26:20.450Z,11.56
2019-05-09T22:29:20.394Z,11.57
2019-05-09T22:32:22.245Z,11.52
2019-05-09T22:35:20.331Z,11.49
2019-05-09T22:38:20.311Z,11.27
2019-05-09T22:41:20.290Z,11.07
2019-05-09T22:44:20.242Z,11.07
2019-05-09T22:47:20.225Z,10.88
2019-05-09T22:50:20.166Z,10.71
2019-05-09T22:53:20.162Z,10.70
2019-05-09T22:56:20.107Z,10.77
2019-05-09T22:59:20.065Z,10.66
2019-05-09T23:02:20.054Z,10.63
2019-05-09T23:05:19.995Z,10.63
2019-05-09T23:08:19.979Z,10.52
2019-05-09T23:11:19.957Z,10.59
2019-05-09T23:14:19.915Z,10.51
2019-05-09T23:17:19.876Z,10.53
2019-05-09T23:20:19.830Z,10.47
2019-05-09T23:23:19.815Z,10.37
2019-05-09T23:26:19.774Z,10.42
2019-05-09T23:29:19.756Z,10.33
2019-05-09T23:32:19.714Z,10.36
2019-05-09T23:35:19.684Z,10.40
2019-05-09T23:38:19.655Z,10.40
2019-05-09T23:41:19.599Z,10.37
2019-05-09T23:44:19.590Z,10.39
2019-05-09T23:47:19.554Z,10.42
2019-05-09T23:50:19.501Z,10.34
2019-05-09T23:53:19.474Z,10.32
2019-05-09T23:56:19.432Z,10.25
2019-05-09T23:59:19.428Z,10.44
